Midale, Canada
Current Conditions -  °F | °C
As of 10:00 AM on Sunday 21 Dec 2014 (Local Time) from CYEN Reporting Station
Few Clouds Few Clouds  
Wind Chill:   Ceiling: Unl
Heat Index: 19°   Visibility: 15mi
Dew Point: 18°   Wind: 8mph
Humidity: 93%   Direction: 90°E
Pressure: 29.45"   Gusts: NA
Location:  49.39°N, 103.41°W
Report Text: CYEN 211600Z 09007KT 15SM FEW100 FEW230 M07/M08 A2945 RMKAC1CI1 SLP007
Loading
Personal Weather Stations






























Interactive Weather Map New forecast layout! Learn more

10-Day Weather Forecast

Advertisements
Track Severe Weather on mobile